Terminal Aerodrome Forecast
Issued by NWS

Home | Current Version | Previous Version | Text Only | Print | Product List | Glossary On
Versions: 1 2 3 4 5 6 7 8 9 10 11 12 13 14
000
FTUS43 KDTX 221725
TAFPTK
TAF
KPTK 221725Z 2218/2318 33010KT P6SM BKN035
     FM222200 29008KT P6SM SCT040
     FM230100 24003KT P6SM BKN250
     FM230800 23007KT P6SM BKN100=

USA.gov is the U.S. government's official web portal to all federal, state and local government web resources and services.